Time;durP1;ratioP1;P1;durP2;ratioP2;P2;SDS_P1;SDS_P2;PMS_P1;PMS_P2;Temp;Humidity;BMP_temperature;BMP_pressure;BME280_temperature;BME280_humidity;BME280_pressure;Samples;Min_cycle;Max_cycle;Signal;HPM_P1;HPM_P2
2023/10/15 00:00:15;;;;;;;45.25;23.88;;;;;;;;;;10447509;28;20434;-89
2023/10/15 00:05:20;;;;;;;39.90;24.38;;;;;;;;;;10434847;28;20471;-87
2023/10/15 00:10:25;;;;;;;42.33;23.80;;;;;;;;;;10445370;28;20492;-88
2023/10/15 00:15:29;;;;;;;44.30;24.38;;;;;;;;;;10450797;28;20454;-88
2023/10/15 00:20:35;;;;;;;46.05;24.27;;;;;;;;;;10437972;28;20912;-87
2023/10/15 00:25:47;;;;;;;46.20;25.05;;;;;;;;;;10434427;28;20415;-89
2023/10/15 00:30:49;;;;;;;45.67;25.38;;;;;;;;;;10446682;28;20399;-89
2023/10/15 00:35:55;;;;;;;44.57;24.67;;;;;;;;;;10436454;28;20464;-89
2023/10/15 00:41:00;;;;;;;44.00;24.33;;;;;;;;;;10435314;28;20401;-89
2023/10/15 00:46:13;;;;;;;43.72;23.88;;;;;;;;;;10436986;28;20969;-89
2023/10/15 00:51:20;;;;;;;42.30;24.60;;;;;;;;;;10435844;28;20404;-88
2023/10/15 00:56:24;;;;;;;46.72;25.63;;;;;;;;;;10437065;28;20424;-88
2023/10/15 01:01:33;;;;;;;44.97;24.67;;;;;;;;;;10429236;28;21260;-88
2023/10/15 01:06:39;;;;;;;46.17;25.27;;;;;;;;;;10434398;28;20970;-88
2023/10/15 01:11:44;;;;;;;45.70;25.07;;;;;;;;;;10437724;28;20417;-88
2023/10/15 01:16:46;;;;;;;46.70;25.27;;;;;;;;;;10431351;28;20826;-88
2023/10/15 01:21:53;;;;;;;45.20;24.38;;;;;;;;;;10436773;28;20441;-88
2023/10/15 01:27:08;;;;;;;44.07;24.13;;;;;;;;;;10442446;28;20492;-88
2023/10/15 01:32:13;;;;;;;42.50;24.43;;;;;;;;;;10428084;28;20889;-87
2023/10/15 01:37:24;;;;;;;43.30;23.30;;;;;;;;;;10441699;28;20470;-87
2023/10/15 01:42:40;;;;;;;42.97;23.40;;;;;;;;;;10432875;28;20405;-87
2023/10/15 01:48:04;;;;;;;47.03;24.50;;;;;;;;;;10440571;28;20425;-86
2023/10/15 01:53:06;;;;;;;41.50;24.02;;;;;;;;;;10439778;28;20404;-86
2023/10/15 01:58:12;;;;;;;43.55;24.65;;;;;;;;;;10427192;28;20423;-87
2023/10/15 02:03:14;;;;;;;46.42;23.90;;;;;;;;;;10444013;28;20409;-88
2023/10/15 02:08:23;;;;;;;43.90;24.30;;;;;;;;;;10463927;28;20425;-86
2023/10/15 02:13:28;;;;;;;45.38;25.00;;;;;;;;;;10438327;28;20408;-87
2023/10/15 02:18:31;;;;;;;46.90;24.90;;;;;;;;;;10437896;28;20415;-87
2023/10/15 02:23:34;;;;;;;46.92;24.17;;;;;;;;;;10437670;28;20501;-87
2023/10/15 02:28:39;;;;;;;42.55;23.67;;;;;;;;;;10434141;28;20451;-87
2023/10/15 02:33:42;;;;;;;44.33;24.13;;;;;;;;;;10432737;28;20462;-86
2023/10/15 02:38:53;;;;;;;47.30;24.30;;;;;;;;;;10438871;28;20441;-87
2023/10/15 02:43:57;;;;;;;41.40;24.60;;;;;;;;;;10430134;28;20754;-86
2023/10/15 02:49:00;;;;;;;41.53;24.03;;;;;;;;;;10433097;28;20450;-87
2023/10/15 02:54:09;;;;;;;42.75;24.38;;;;;;;;;;10428343;28;20473;-87
2023/10/15 02:59:15;;;;;;;42.55;23.15;;;;;;;;;;10421017;28;20452;-86
2023/10/15 03:04:32;;;;;;;42.77;25.07;;;;;;;;;;10428464;28;20541;-86
2023/10/15 03:09:34;;;;;;;42.00;23.80;;;;;;;;;;10436408;28;20835;-87
2023/10/15 03:14:38;;;;;;;38.70;23.30;;;;;;;;;;10443902;28;20804;-87
2023/10/15 03:19:41;;;;;;;41.13;23.60;;;;;;;;;;10440243;28;20471;-87
2023/10/15 03:24:44;;;;;;;45.05;25.17;;;;;;;;;;10440980;28;20679;-87
2023/10/15 03:29:48;;;;;;;43.38;23.40;;;;;;;;;;10437437;28;20500;-88
2023/10/15 03:34:59;;;;;;;41.53;23.00;;;;;;;;;;10444311;28;20742;-87
2023/10/15 03:40:11;;;;;;;46.57;24.37;;;;;;;;;;10436857;28;20432;-86
2023/10/15 03:45:26;;;;;;;43.58;24.08;;;;;;;;;;10440205;28;20446;-87
2023/10/15 03:50:29;;;;;;;44.22;24.35;;;;;;;;;;10440056;28;20466;-87
2023/10/15 03:55:31;;;;;;;42.83;23.52;;;;;;;;;;10436012;28;20907;-88
2023/10/15 04:00:46;;;;;;;41.10;23.40;;;;;;;;;;10437371;28;20411;-87
2023/10/15 04:06:00;;;;;;;43.80;24.15;;;;;;;;;;10433921;28;21231;-88
2023/10/15 04:11:03;;;;;;;39.75;23.50;;;;;;;;;;10442968;28;20411;-86
2023/10/15 04:16:07;;;;;;;42.93;23.87;;;;;;;;;;10440346;28;20461;-87
2023/10/15 04:21:09;;;;;;;44.10;23.77;;;;;;;;;;10435926;28;20442;-87
2023/10/15 04:26:12;;;;;;;41.77;23.87;;;;;;;;;;10433711;28;20409;-87
2023/10/15 04:31:22;;;;;;;41.13;22.73;;;;;;;;;;10440790;28;20834;-87
2023/10/15 04:36:25;;;;;;;38.88;22.77;;;;;;;;;;10439667;28;20465;-87
2023/10/15 04:41:33;;;;;;;40.72;22.50;;;;;;;;;;10433751;28;20552;-87
2023/10/15 04:46:41;;;;;;;39.55;22.52;;;;;;;;;;10435957;28;20419;-87
2023/10/15 04:51:43;;;;;;;37.05;21.60;;;;;;;;;;10435163;28;20469;-87
2023/10/15 04:56:46;;;;;;;34.60;20.07;;;;;;;;;;10437446;28;20741;-87
2023/10/15 05:01:50;;;;;;;37.92;20.90;;;;;;;;;;10433435;28;20407;-87
2023/10/15 05:06:52;;;;;;;36.13;20.27;;;;;;;;;;10430107;28;20447;-87
2023/10/15 05:11:55;;;;;;;38.42;21.63;;;;;;;;;;10435242;28;20479;-87
2023/10/15 05:16:59;;;;;;;37.58;21.20;;;;;;;;;;10431857;28;20755;-88
2023/10/15 05:22:02;;;;;;;35.15;20.73;;;;;;;;;;10439460;28;20404;-87
2023/10/15 05:27:04;;;;;;;37.22;20.65;;;;;;;;;;10437891;28;20420;-87
2023/10/15 05:32:08;;;;;;;37.40;19.80;;;;;;;;;;10436095;28;20419;-87
2023/10/15 05:37:10;;;;;;;37.33;20.50;;;;;;;;;;10434271;28;20440;-87
2023/10/15 05:42:13;;;;;;;35.10;19.88;;;;;;;;;;10438884;28;20696;-87
2023/10/15 05:47:19;;;;;;;32.83;19.43;;;;;;;;;;10432326;28;20518;-86
2023/10/15 05:52:23;;;;;;;34.33;19.00;;;;;;;;;;10435716;28;20414;-87
2023/10/15 05:57:25;;;;;;;34.47;19.20;;;;;;;;;;10425278;28;20394;-87
2023/10/15 06:02:29;;;;;;;32.67;19.20;;;;;;;;;;10426325;28;20945;-87
2023/10/15 06:07:32;;;;;;;34.78;19.95;;;;;;;;;;10433247;28;20524;-86
2023/10/15 06:12:34;;;;;;;33.47;18.67;;;;;;;;;;10425343;28;20469;-85
2023/10/15 06:17:38;;;;;;;38.88;22.17;;;;;;;;;;10439078;28;20407;-83
2023/10/15 06:22:43;;;;;;;36.03;21.23;;;;;;;;;;10431841;28;20437;-85
2023/10/15 06:27:45;;;;;;;38.50;20.65;;;;;;;;;;10434099;28;20497;-85
2023/10/15 06:32:52;;;;;;;35.22;20.40;;;;;;;;;;10428265;28;20509;-85
2023/10/15 06:37:55;;;;;;;33.03;19.50;;;;;;;;;;10428989;28;20470;-85
2023/10/15 06:43:03;;;;;;;34.77;19.53;;;;;;;;;;10425060;28;20448;-85
2023/10/15 06:48:08;;;;;;;33.13;19.00;;;;;;;;;;10433572;28;20520;-85
2023/10/15 06:53:10;;;;;;;33.00;19.25;;;;;;;;;;10453796;23;20422;-85
2023/10/15 06:58:12;;;;;;;34.28;19.23;;;;;;;;;;10475016;28;20744;-85
2023/10/15 07:03:16;;;;;;;31.03;18.60;;;;;;;;;;10472339;28;20398;-85
2023/10/15 07:08:21;;;;;;;31.40;17.30;;;;;;;;;;10473677;28;20499;-86
2023/10/15 07:13:23;;;;;;;33.37;18.67;;;;;;;;;;10468583;28;20407;-86
2023/10/15 07:18:27;;;;;;;32.85;18.15;;;;;;;;;;10471290;28;20406;-82
2023/10/15 07:23:29;;;;;;;31.10;17.42;;;;;;;;;;10466223;28;20502;-86
2023/10/15 07:28:33;;;;;;;27.80;16.45;;;;;;;;;;10470576;28;21230;-85
2023/10/15 07:33:37;;;;;;;26.97;15.43;;;;;;;;;;10475203;28;21005;-86
2023/10/15 07:38:39;;;;;;;27.70;15.47;;;;;;;;;;10468307;28;20544;-86
2023/10/15 07:43:42;;;;;;;23.27;14.60;;;;;;;;;;10466608;28;20507;-86
2023/10/15 07:48:46;;;;;;;28.10;15.97;;;;;;;;;;10467483;28;20502;-86
2023/10/15 07:53:48;;;;;;;25.07;15.23;;;;;;;;;;10467338;28;20502;-85
2023/10/15 07:58:51;;;;;;;25.55;15.23;;;;;;;;;;10473111;28;21039;-85
2023/10/15 08:03:59;;;;;;;26.77;15.97;;;;;;;;;;10489980;28;20483;-85
2023/10/15 08:09:01;;;;;;;22.80;14.73;;;;;;;;;;10480678;28;20507;-86
2023/10/15 08:14:05;;;;;;;26.27;15.60;;;;;;;;;;10485042;28;20503;-86
2023/10/15 08:19:09;;;;;;;25.30;14.70;;;;;;;;;;10473276;28;20783;-86
2023/10/15 08:24:14;;;;;;;24.20;14.40;;;;;;;;;;10472940;28;20501;-85
2023/10/15 08:29:19;;;;;;;21.27;13.00;;;;;;;;;;10473268;28;20783;-86
2023/10/15 08:34:23;;;;;;;17.92;11.43;;;;;;;;;;10476039;28;20822;-86
2023/10/15 08:39:27;;;;;;;17.70;11.20;;;;;;;;;;10473565;28;20426;-86
2023/10/15 08:44:29;;;;;;;15.97;10.17;;;;;;;;;;10474955;28;20414;-85
2023/10/15 08:49:35;;;;;;;14.60;9.37;;;;;;;;;;10480628;28;20477;-80
2023/10/15 08:54:38;;;;;;;16.52;9.25;;;;;;;;;;10478024;28;20461;-87
2023/10/15 08:59:41;;;;;;;15.30;10.18;;;;;;;;;;10481092;28;20412;-86
2023/10/15 09:04:45;;;;;;;14.13;8.50;;;;;;;;;;10477158;28;20484;-85
2023/10/15 09:09:49;;;;;;;15.07;10.23;;;;;;;;;;10472517;28;20495;-86
2023/10/15 09:14:51;;;;;;;16.40;10.02;;;;;;;;;;10474099;28;20402;-87
2023/10/15 09:19:55;;;;;;;14.03;9.13;;;;;;;;;;10474207;28;20880;-87
2023/10/15 09:24:57;;;;;;;16.00;9.87;;;;;;;;;;10477551;28;20404;-86
2023/10/15 09:30:14;;;;;;;14.98;9.48;;;;;;;;;;10476496;28;20482;-86
2023/10/15 09:35:19;;;;;;;13.20;8.52;;;;;;;;;;10479790;28;20487;-86
2023/10/15 09:40:23;;;;;;;11.85;8.80;;;;;;;;;;10478821;28;20895;-86
2023/10/15 09:45:25;;;;;;;14.32;8.80;;;;;;;;;;10470728;28;20456;-86
2023/10/15 09:50:32;;;;;;;12.20;7.88;;;;;;;;;;10470653;28;20962;-87
2023/10/15 09:55:34;;;;;;;11.97;8.43;;;;;;;;;;10475610;28;20446;-86
2023/10/15 10:00:47;;;;;;;12.80;8.00;;;;;;;;;;10466160;28;20460;-87
2023/10/15 10:05:58;;;;;;;11.85;7.72;;;;;;;;;;10475325;28;20890;-86
2023/10/15 10:11:18;;;;;;;12.17;7.20;;;;;;;;;;10470839;28;20427;-87
2023/10/15 10:16:26;;;;;;;9.83;6.37;;;;;;;;;;10470121;28;20407;-87
2023/10/15 10:21:32;;;;;;;10.20;6.57;;;;;;;;;;10474097;28;20470;-86
2023/10/15 10:26:34;;;;;;;12.20;8.00;;;;;;;;;;10469084;28;20407;-87
2023/10/15 10:31:39;;;;;;;9.18;5.93;;;;;;;;;;10472822;28;20503;-86
2023/10/15 10:36:53;;;;;;;9.13;6.03;;;;;;;;;;10473597;28;20465;-87
2023/10/15 10:41:58;;;;;;;9.83;6.20;;;;;;;;;;10466544;28;20887;-87
2023/10/15 10:47:18;;;;;;;8.88;6.03;;;;;;;;;;10473709;28;20434;-86
2023/10/15 10:52:28;;;;;;;9.00;5.40;;;;;;;;;;10464760;28;20452;-86
2023/10/15 10:57:31;;;;;;;9.45;5.75;;;;;;;;;;10472668;28;20433;-86
2023/10/15 11:02:34;;;;;;;12.03;6.27;;;;;;;;;;10469733;28;20428;-87
2023/10/15 11:07:40;;;;;;;9.27;6.30;;;;;;;;;;10470425;28;20455;-86
2023/10/15 11:12:46;;;;;;;10.35;6.75;;;;;;;;;;10470680;28;20447;-86
2023/10/15 11:17:55;;;;;;;9.13;5.55;;;;;;;;;;10471138;28;20444;-85
2023/10/15 11:23:01;;;;;;;7.80;4.80;;;;;;;;;;10473203;28;20413;-86
2023/10/15 11:28:05;;;;;;;8.32;5.45;;;;;;;;;;10470448;28;20840;-86
2023/10/15 11:33:09;;;;;;;6.53;3.88;;;;;;;;;;10484735;28;20486;-87
2023/10/15 11:38:12;;;;;;;6.47;3.42;;;;;;;;;;10482916;28;20470;-85
2023/10/15 11:43:17;;;;;;;4.50;3.00;;;;;;;;;;10480395;28;20455;-87
2023/10/15 11:48:21;;;;;;;4.60;2.60;;;;;;;;;;10489856;28;20402;-86
2023/10/15 11:53:25;;;;;;;2.75;2.05;;;;;;;;;;10478226;28;20469;-87
2023/10/15 11:58:31;;;;;;;2.10;1.20;;;;;;;;;;10468755;28;20813;-85
2023/10/15 12:03:36;;;;;;;3.42;1.10;;;;;;;;;;10478011;28;20939;-87
2023/10/15 12:08:40;;;;;;;2.43;0.80;;;;;;;;;;10473821;28;20409;-87
2023/10/15 12:13:44;;;;;;;3.40;0.90;;;;;;;;;;10472483;28;20410;-87
2023/10/15 12:18:46;;;;;;;4.32;0.77;;;;;;;;;;10484380;28;20409;-86
2023/10/15 12:23:50;;;;;;;2.72;0.95;;;;;;;;;;10486392;28;20418;-87
2023/10/15 12:28:52;;;;;;;0.60;0.60;;;;;;;;;;10467853;28;20448;-86
2023/10/15 12:33:56;;;;;;;1.60;0.70;;;;;;;;;;10496830;28;20958;-93
2023/10/15 12:38:59;;;;;;;2.22;0.80;;;;;;;;;;10490156;28;20901;-86
2023/10/15 12:44:09;;;;;;;0.65;0.50;;;;;;;;;;10478492;28;20460;-86
2023/10/15 12:49:11;;;;;;;3.15;0.52;;;;;;;;;;10483207;28;20447;-86
2023/10/15 12:54:15;;;;;;;1.27;0.50;;;;;;;;;;10476788;28;20976;-86
2023/10/15 12:59:17;;;;;;;2.23;0.33;;;;;;;;;;10474031;28;20602;-87
2023/10/15 13:04:21;;;;;;;0.98;0.30;;;;;;;;;;10475426;28;20414;-86
2023/10/15 13:09:32;;;;;;;2.10;0.25;;;;;;;;;;10476638;28;20503;-86
2023/10/15 13:14:34;;;;;;;1.88;0.50;;;;;;;;;;10481587;28;20402;-87
2023/10/15 13:19:37;;;;;;;1.30;0.30;;;;;;;;;;10478652;28;20414;-87
2023/10/15 13:24:41;;;;;;;1.93;0.30;;;;;;;;;;10487553;28;20406;-87
2023/10/15 13:29:43;;;;;;;0.63;0.22;;;;;;;;;;10472518;28;20454;-87
2023/10/15 13:34:46;;;;;;;0.50;0.17;;;;;;;;;;10472950;28;20418;-87
2023/10/15 13:39:52;;;;;;;2.20;0.30;;;;;;;;;;10484211;28;20414;-86
2023/10/15 13:44:55;;;;;;;1.60;0.30;;;;;;;;;;10477522;28;20445;-88
2023/10/15 13:49:57;;;;;;;2.10;0.20;;;;;;;;;;10474480;28;20480;-86
2023/10/15 13:55:01;;;;;;;1.00;0.10;;;;;;;;;;10477604;28;20438;-86
2023/10/15 14:00:11;;;;;;;0.50;0.20;;;;;;;;;;10470657;28;20431;-85
2023/10/15 14:05:15;;;;;;;0.30;0.10;;;;;;;;;;10473620;28;20449;-86
2023/10/15 14:10:20;;;;;;;0.70;0.20;;;;;;;;;;10473103;28;20515;-87
2023/10/15 14:15:24;;;;;;;0.20;0.20;;;;;;;;;;10472837;28;20476;-86
2023/10/15 14:20:26;;;;;;;0.87;0.23;;;;;;;;;;10473219;28;20567;-86
2023/10/15 14:25:30;;;;;;;0.90;0.15;;;;;;;;;;10492239;28;20410;-85
2023/10/15 14:30:33;;;;;;;0.20;0.20;;;;;;;;;;10473370;28;20449;-86
2023/10/15 14:35:36;;;;;;;1.00;0.20;;;;;;;;;;10473913;28;20535;-86
2023/10/15 14:40:41;;;;;;;0.35;0.20;;;;;;;;;;10459018;28;20469;-86
2023/10/15 14:45:44;;;;;;;0.45;0.20;;;;;;;;;;10452865;28;20918;-85
2023/10/15 14:50:47;;;;;;;1.10;0.15;;;;;;;;;;10468541;28;20441;-87
2023/10/15 14:55:50;;;;;;;0.22;0.10;;;;;;;;;;10481878;28;20433;-86
2023/10/15 15:00:53;;;;;;;0.43;0.30;;;;;;;;;;10471321;28;20431;-86
2023/10/15 15:05:55;;;;;;;1.03;0.10;;;;;;;;;;10474682;28;20467;-86
2023/10/15 15:10:59;;;;;;;0.15;0.10;;;;;;;;;;10477527;28;20457;-86
2023/10/15 15:16:02;;;;;;;0.30;0.13;;;;;;;;;;10468498;28;20441;-85
2023/10/15 15:21:05;;;;;;;0.20;0.20;;;;;;;;;;10479415;28;20507;-86
2023/10/15 15:26:09;;;;;;;0.25;0.05;;;;;;;;;;10475323;28;20527;-86
2023/10/15 15:31:11;;;;;;;0.20;0.20;;;;;;;;;;10488232;28;20456;-89
2023/10/15 15:36:15;;;;;;;0.32;0.20;;;;;;;;;;10484360;28;20444;-89
2023/10/15 15:41:19;;;;;;;0.90;0.50;;;;;;;;;;10481019;28;20473;-88
2023/10/15 15:46:21;;;;;;;0.30;0.00;;;;;;;;;;10473527;28;20418;-89
2023/10/15 15:51:24;;;;;;;1.40;0.20;;;;;;;;;;10478330;28;20425;-89
2023/10/15 15:56:27;;;;;;;1.20;0.10;;;;;;;;;;10478115;28;20470;-89
2023/10/15 16:01:30;;;;;;;0.17;0.10;;;;;;;;;;10476878;28;20555;-89
2023/10/15 16:06:32;;;;;;;0.10;0.10;;;;;;;;;;10479194;28;20744;-87
2023/10/15 16:11:36;;;;;;;0.80;0.40;;;;;;;;;;10482676;28;20422;-89
2023/10/15 16:16:39;;;;;;;0.50;0.30;;;;;;;;;;10485137;28;20422;-87
2023/10/15 16:21:41;;;;;;;1.05;0.40;;;;;;;;;;10483532;28;20415;-88
2023/10/15 16:26:45;;;;;;;1.23;0.40;;;;;;;;;;10483542;28;20414;-87
2023/10/15 16:31:47;;;;;;;3.28;1.30;;;;;;;;;;10501748;28;20418;-88
2023/10/15 16:36:51;;;;;;;2.60;0.77;;;;;;;;;;10491665;28;20418;-89
2023/10/15 16:41:55;;;;;;;0.30;0.20;;;;;;;;;;10488064;28;20442;-85
2023/10/15 16:46:57;;;;;;;1.55;0.50;;;;;;;;;;10484583;28;20421;-88
2023/10/15 16:52:00;;;;;;;0.73;0.20;;;;;;;;;;10483669;28;20446;-88
2023/10/15 16:57:04;;;;;;;1.70;0.30;;;;;;;;;;10477809;28;20433;-88
2023/10/15 17:02:06;;;;;;;1.70;0.20;;;;;;;;;;10481316;28;20531;-86
2023/10/15 17:07:09;;;;;;;1.10;0.30;;;;;;;;;;10481596;28;20446;-88
2023/10/15 17:12:13;;;;;;;1.50;0.30;;;;;;;;;;10487347;28;20460;-86
2023/10/15 17:17:16;;;;;;;0.50;0.32;;;;;;;;;;10474424;28;20542;-87
2023/10/15 17:22:18;;;;;;;0.43;0.43;;;;;;;;;;10471296;28;20454;-87
2023/10/15 17:27:22;;;;;;;0.70;0.30;;;;;;;;;;10466124;28;20498;-87
2023/10/15 17:32:24;;;;;;;0.82;0.40;;;;;;;;;;10474498;28;20410;-87
2023/10/15 17:37:27;;;;;;;1.00;0.50;;;;;;;;;;10466305;28;20446;-87
2023/10/15 17:42:31;;;;;;;1.35;0.40;;;;;;;;;;10477132;28;20552;-88
2023/10/15 17:47:33;;;;;;;0.70;0.30;;;;;;;;;;10476645;28;20497;-87
2023/10/15 17:52:37;;;;;;;0.80;0.32;;;;;;;;;;10466864;28;21034;-87
2023/10/15 17:57:40;;;;;;;0.65;0.40;;;;;;;;;;10470889;28;20402;-87
2023/10/15 18:02:45;;;;;;;0.68;0.50;;;;;;;;;;10465859;28;20445;-87
2023/10/15 18:07:49;;;;;;;1.27;0.80;;;;;;;;;;10476361;28;20461;-87
2023/10/15 18:12:53;;;;;;;1.17;0.50;;;;;;;;;;10471979;28;20523;-89
2023/10/15 18:17:55;;;;;;;1.50;0.32;;;;;;;;;;10465219;28;20981;-87
2023/10/15 18:22:58;;;;;;;0.98;0.22;;;;;;;;;;10469143;28;20480;-87
2023/10/15 18:28:01;;;;;;;1.50;0.40;;;;;;;;;;10466829;28;20403;-87
2023/10/15 18:33:05;;;;;;;1.02;0.30;;;;;;;;;;10482305;28;20418;-88
2023/10/15 18:38:08;;;;;;;0.70;0.40;;;;;;;;;;10474275;28;20450;-87
2023/10/15 18:43:11;;;;;;;1.20;0.70;;;;;;;;;;10477505;28;20442;-86
2023/10/15 18:48:14;;;;;;;1.00;0.50;;;;;;;;;;10479182;28;20487;-87
2023/10/15 18:53:16;;;;;;;3.25;0.77;;;;;;;;;;10476265;28;20495;-87
2023/10/15 18:58:20;;;;;;;0.60;0.30;;;;;;;;;;10468677;28;20762;-87
2023/10/15 19:03:24;;;;;;;0.40;0.30;;;;;;;;;;10475750;28;21007;-87
2023/10/15 19:08:26;;;;;;;1.20;0.20;;;;;;;;;;10461823;28;20447;-88
2023/10/15 19:13:30;;;;;;;0.20;0.20;;;;;;;;;;10464094;28;20451;-87
2023/10/15 19:18:32;;;;;;;1.42;0.30;;;;;;;;;;10474661;28;20925;-88
2023/10/15 19:23:35;;;;;;;0.30;0.30;;;;;;;;;;10469120;28;20504;-88
2023/10/15 19:28:39;;;;;;;1.40;0.30;;;;;;;;;;10452843;28;20406;-89
2023/10/15 19:33:41;;;;;;;0.60;0.20;;;;;;;;;;10493498;28;20475;-88
2023/10/15 19:38:44;;;;;;;0.20;0.20;;;;;;;;;;10469271;28;20442;-88
2023/10/15 19:43:48;;;;;;;0.17;0.17;;;;;;;;;;10469992;28;20418;-89
2023/10/15 19:48:50;;;;;;;0.57;0.20;;;;;;;;;;10472960;28;20472;-88
2023/10/15 19:53:52;;;;;;;0.28;0.20;;;;;;;;;;10471421;28;20981;-89
2023/10/15 19:58:56;;;;;;;0.90;0.30;;;;;;;;;;10481720;28;20425;-89
2023/10/15 20:03:58;;;;;;;1.70;0.40;;;;;;;;;;10479575;28;20410;-88
2023/10/15 20:09:01;;;;;;;0.60;0.27;;;;;;;;;;10481171;28;20445;-89
2023/10/15 20:14:05;;;;;;;1.80;0.30;;;;;;;;;;10479085;28;20515;-88
2023/10/15 20:19:07;;;;;;;0.40;0.20;;;;;;;;;;10482078;28;20442;-87
2023/10/15 20:24:10;;;;;;;0.30;0.20;;;;;;;;;;10481511;28;20439;-88
2023/10/15 20:29:14;;;;;;;0.50;0.30;;;;;;;;;;10477539;28;20461;-88
2023/10/15 20:34:16;;;;;;;1.10;0.30;;;;;;;;;;10489833;28;20417;-88
2023/10/15 20:39:20;;;;;;;0.40;0.30;;;;;;;;;;10479439;28;20782;-88
2023/10/15 20:44:24;;;;;;;1.30;0.20;;;;;;;;;;10470737;28;20414;-87
2023/10/15 20:49:27;;;;;;;0.30;0.10;;;;;;;;;;10478741;28;20410;-88
2023/10/15 20:54:30;;;;;;;0.10;0.10;;;;;;;;;;10471370;28;20461;-89
2023/10/15 20:59:34;;;;;;;1.00;0.17;;;;;;;;;;10477961;28;20434;-88
2023/10/15 21:04:36;;;;;;;0.80;0.30;;;;;;;;;;10481559;28;20487;-89
2023/10/15 21:09:38;;;;;;;0.47;0.20;;;;;;;;;;10474051;28;20419;-88
2023/10/15 21:14:42;;;;;;;0.20;0.20;;;;;;;;;;10485903;28;20910;-89
2023/10/15 21:19:45;;;;;;;0.20;0.10;;;;;;;;;;10484297;28;20408;-89
2023/10/15 21:24:47;;;;;;;0.60;0.20;;;;;;;;;;10477776;28;20426;-89
2023/10/15 21:29:51;;;;;;;0.80;0.10;;;;;;;;;;10486576;28;20436;-89
2023/10/15 21:34:54;;;;;;;0.10;0.10;;;;;;;;;;10497500;28;20426;-89
2023/10/15 21:39:56;;;;;;;0.50;0.10;;;;;;;;;;10480904;28;20487;-89
2023/10/15 21:45:00;;;;;;;0.37;0.10;;;;;;;;;;10483151;28;20406;-87
2023/10/15 21:50:03;;;;;;;1.40;0.10;;;;;;;;;;10478972;28;20481;-88
2023/10/15 21:55:06;;;;;;;0.10;0.10;;;;;;;;;;10464134;28;20448;-88
2023/10/15 22:00:27;;;;;;;0.60;0.30;;;;;;;;;;10474163;28;20465;-87
2023/10/15 22:05:33;;;;;;;0.60;0.28;;;;;;;;;;10472917;28;20418;-88
2023/10/15 22:10:35;;;;;;;0.68;0.40;;;;;;;;;;10478824;28;20398;-88
2023/10/15 22:15:39;;;;;;;0.88;0.30;;;;;;;;;;10476420;28;20469;-88
2023/10/15 22:20:46;;;;;;;0.50;0.35;;;;;;;;;;10473470;28;20404;-88
2023/10/15 22:25:49;;;;;;;0.40;0.30;;;;;;;;;;10481359;28;20416;-87
2023/10/15 22:30:53;;;;;;;0.55;0.30;;;;;;;;;;10482606;28;20407;-88
2023/10/15 22:35:55;;;;;;;0.50;0.30;;;;;;;;;;10470194;28;20446;-88
2023/10/15 22:40:57;;;;;;;0.33;0.23;;;;;;;;;;10479359;28;20960;-88
2023/10/15 22:46:04;;;;;;;0.20;0.20;;;;;;;;;;10478438;28;20386;-88
2023/10/15 22:51:07;;;;;;;0.20;0.20;;;;;;;;;;10470990;28;20413;-87
2023/10/15 22:56:09;;;;;;;0.70;0.30;;;;;;;;;;10467525;28;20477;-88
2023/10/15 23:01:20;;;;;;;0.17;0.10;;;;;;;;;;10477930;28;20412;-89
2023/10/15 23:06:23;;;;;;;0.30;0.20;;;;;;;;;;10477601;28;20405;-88
2023/10/15 23:11:25;;;;;;;1.20;0.20;;;;;;;;;;10476884;28;20402;-87
2023/10/15 23:16:29;;;;;;;0.20;0.20;;;;;;;;;;10478443;28;20464;-88
2023/10/15 23:21:36;;;;;;;0.20;0.20;;;;;;;;;;10478058;28;20413;-88
2023/10/15 23:26:39;;;;;;;0.30;0.30;;;;;;;;;;10477008;28;20406;-88
2023/10/15 23:31:43;;;;;;;0.82;0.50;;;;;;;;;;10485030;28;20463;-87
2023/10/15 23:36:45;;;;;;;0.43;0.38;;;;;;;;;;10476335;28;20422;-88
2023/10/15 23:41:49;;;;;;;0.60;0.47;;;;;;;;;;10487617;28;20415;-88
2023/10/15 23:47:11;;;;;;;0.60;0.43;;;;;;;;;;10486823;28;20457;-88
2023/10/15 23:52:21;;;;;;;0.63;0.50;;;;;;;;;;10482796;28;20594;-88
2023/10/15 23:57:26;;;;;;;0.30;0.30;;;;;;;;;;10478832;28;20428;-88
